createdAt,value
2022-10-17T00:01:34.547Z,88.04
2022-10-17T00:04:00.229Z,88.44
2022-10-17T00:06:26.022Z,88.53
2022-10-17T00:08:51.696Z,88.56
2022-10-17T00:11:20.505Z,88.24
2022-10-17T00:13:49.176Z,88.23
2022-10-17T00:16:22.517Z,87.48
2022-10-17T00:18:48.181Z,87.62
2022-10-17T00:21:18.626Z,87.13
2022-10-17T00:23:45.230Z,87.07
2022-10-17T00:26:10.989Z,86.69
2022-10-17T00:28:36.783Z,86.87
2022-10-17T00:31:04.568Z,86.90
2022-10-17T00:33:31.462Z,86.89
2022-10-17T00:36:15.931Z,86.85
2022-10-17T00:38:43.361Z,86.70
2022-10-17T00:41:09.618Z,86.79
2022-10-17T00:44:02.593Z,87.12
2022-10-17T00:46:36.889Z,86.51
2022-10-17T00:49:06.753Z,86.73
2022-10-17T00:51:57.961Z,86.86
2022-10-17T00:54:29.531Z,86.75
2022-10-17T00:56:55.440Z,86.55
2022-10-17T00:59:22.571Z,86.58
2022-10-17T01:02:02.899Z,86.75
2022-10-17T01:04:28.613Z,86.79
2022-10-17T01:06:54.391Z,86.82
2022-10-17T01:09:20.280Z,86.89
2022-10-17T01:11:56.334Z,87.13
2022-10-17T01:14:32.149Z,87.54
2022-10-17T01:17:03.083Z,86.84
2022-10-17T01:20:06.531Z,87.34
2022-10-17T01:22:42.894Z,87.14
2022-10-17T01:25:19.126Z,86.63
2022-10-17T01:28:07.259Z,87.10
2022-10-17T01:30:58.635Z,87.10
2022-10-17T01:33:35.386Z,87.07
2022-10-17T01:36:10.362Z,86.59
2022-10-17T01:39:01.131Z,87.32
2022-10-17T01:41:49.557Z,86.91
2022-10-17T01:44:26.152Z,86.63
2022-10-17T01:46:57.728Z,87.03
2022-10-17T01:49:27.594Z,87.28
2022-10-17T01:52:21.131Z,86.85
2022-10-17T01:54:51.934Z,87.00
2022-10-17T01:57:26.105Z,87.16
2022-10-17T01:59:54.541Z,87.00
2022-10-17T02:02:21.156Z,86.89
2022-10-17T02:04:50.219Z,86.91
2022-10-17T02:07:16.285Z,86.97
2022-10-17T02:09:42.592Z,86.98
2022-10-17T02:12:26.649Z,87.14
2022-10-17T02:15:03.941Z,86.98
2022-10-17T02:18:07.102Z,87.03
2022-10-17T02:20:48.363Z,86.80
2022-10-17T02:23:32.883Z,86.94
2022-10-17T02:26:04.689Z,87.21
2022-10-17T02:28:43.794Z,86.63
2022-10-17T02:31:17.179Z,87.15
2022-10-17T02:33:53.281Z,86.77
2022-10-17T02:36:23.777Z,86.58
2022-10-17T02:38:52.969Z,86.97
2022-10-17T02:41:21.539Z,86.45
2022-10-17T02:43:49.124Z,86.92
2022-10-17T02:46:20.386Z,86.55
2022-10-17T02:49:00.713Z,86.21
2022-10-17T02:51:26.285Z,86.78
2022-10-17T02:54:12.076Z,86.64
2022-10-17T02:56:45.276Z,86.48
2022-10-17T02:59:16.757Z,86.24
2022-10-17T03:01:43.489Z,86.58
2022-10-17T03:04:13.949Z,87.19
2022-10-17T03:06:40.800Z,86.68
2022-10-17T03:09:07.312Z,87.24
2022-10-17T03:11:33.473Z,87.05
2022-10-17T03:13:59.241Z,86.96
2022-10-17T03:16:24.969Z,86.39
2022-10-17T03:18:50.633Z,87.28
2022-10-17T03:21:16.416Z,87.06
2022-10-17T03:23:42.086Z,87.33
2022-10-17T03:26:09.087Z,87.24
2022-10-17T03:28:34.831Z,87.09
2022-10-17T03:31:09.363Z,87.20
2022-10-17T03:33:36.533Z,86.63
2022-10-17T03:36:10.444Z,87.00
2022-10-17T03:38:36.627Z,87.33
2022-10-17T03:41:03.428Z,86.46
2022-10-17T03:43:29.652Z,86.79
2022-10-17T03:45:57.607Z,86.62
2022-10-17T03:48:23.914Z,86.68
2022-10-17T03:50:49.759Z,86.75
2022-10-17T03:53:15.734Z,87.09
2022-10-17T03:55:41.376Z,87.44
2022-10-17T03:58:07.177Z,87.99
2022-10-17T04:00:35.127Z,87.73
2022-10-17T04:03:00.821Z,87.60
2022-10-17T04:05:26.494Z,87.33
2022-10-17T04:07:52.148Z,87.47
2022-10-17T04:10:18.028Z,87.39
2022-10-17T04:12:43.768Z,87.72
2022-10-17T04:15:09.798Z,87.08
2022-10-17T04:17:38.034Z,86.74
2022-10-17T04:20:04.450Z,86.82
2022-10-17T04:22:30.344Z,87.25
2022-10-17T04:24:56.457Z,87.54
2022-10-17T04:27:22.116Z,87.53
2022-10-17T04:29:47.910Z,87.14
2022-10-17T04:32:14.323Z,86.57
2022-10-17T04:34:40.097Z,86.93
2022-10-17T04:37:05.852Z,86.00
2022-10-17T04:39:31.662Z,86.12
2022-10-17T04:41:57.329Z,86.35
2022-10-17T04:44:23.274Z,86.83
2022-10-17T04:46:48.942Z,85.91
2022-10-17T04:49:14.601Z,86.42
2022-10-17T04:51:40.367Z,87.09
2022-10-17T04:54:06.044Z,86.50
2022-10-17T04:56:31.717Z,85.68
2022-10-17T04:58:59.208Z,86.07
2022-10-17T05:01:26.154Z,86.02
2022-10-17T05:03:52.803Z,86.31
2022-10-17T05:06:21.230Z,85.72
2022-10-17T05:08:47.727Z,85.75
2022-10-17T05:11:22.294Z,86.78
2022-10-17T05:13:53.629Z,86.61
2022-10-17T05:16:20.257Z,86.89
2022-10-17T05:18:52.847Z,87.34
2022-10-17T05:21:19.898Z,87.12
2022-10-17T05:23:46.040Z,87.27
2022-10-17T05:26:11.980Z,86.75
2022-10-17T05:28:37.841Z,86.83
2022-10-17T05:31:05.054Z,86.64
2022-10-17T05:33:30.989Z,86.14
2022-10-17T05:35:57.243Z,85.77
2022-10-17T05:38:23.166Z,86.54
2022-10-17T05:40:49.016Z,86.33
2022-10-17T05:43:14.728Z,86.37
2022-10-17T05:45:40.700Z,85.97
2022-10-17T05:48:08.284Z,85.36
2022-10-17T05:50:34.620Z,85.91
2022-10-17T05:53:00.624Z,86.78
2022-10-17T05:55:26.741Z,86.63
2022-10-17T05:57:53.365Z,86.56
2022-10-17T06:00:20.708Z,86.97
2022-10-17T06:02:47.206Z,86.90
2022-10-17T06:05:13.963Z,86.76
2022-10-17T06:07:40.558Z,87.10
2022-10-17T06:10:06.823Z,87.69
2022-10-17T06:12:32.557Z,87.48
2022-10-17T06:14:58.260Z,87.62
2022-10-17T06:17:24.354Z,87.10
2022-10-17T06:19:50.039Z,86.40
2022-10-17T06:22:15.757Z,86.41
2022-10-17T06:24:41.818Z,85.87
2022-10-17T06:27:11.057Z,86.01
2022-10-17T06:29:40.556Z,84.98
2022-10-17T06:32:08.606Z,84.97
2022-10-17T06:34:36.874Z,85.07
2022-10-17T06:37:02.918Z,84.79
2022-10-17T06:39:33.014Z,85.29
2022-10-17T06:42:00.156Z,84.89
2022-10-17T06:44:29.828Z,85.31
2022-10-17T06:46:56.241Z,85.16
2022-10-17T06:49:22.122Z,85.80
2022-10-17T06:51:47.773Z,86.05
2022-10-17T06:54:13.517Z,85.80
2022-10-17T06:56:39.165Z,85.83
2022-10-17T06:59:04.823Z,86.13
2022-10-17T07:01:31.336Z,85.58
2022-10-17T07:03:57.338Z,85.35
2022-10-17T07:06:25.900Z,85.21
2022-10-17T07:08:51.994Z,85.30
2022-10-17T07:11:20.069Z,85.46
2022-10-17T07:13:46.309Z,85.45
2022-10-17T07:16:13.157Z,85.18
2022-10-17T07:18:39.343Z,85.22
2022-10-17T07:21:05.989Z,85.40
2022-10-17T07:23:33.530Z,85.05
2022-10-17T07:26:01.825Z,84.85
2022-10-17T07:28:28.131Z,84.62
2022-10-17T07:30:54.618Z,84.52
2022-10-17T07:33:20.887Z,84.56
2022-10-17T07:35:46.545Z,84.38
2022-10-17T07:38:12.192Z,84.65
2022-10-17T07:40:38.159Z,84.55
2022-10-17T07:43:03.813Z,84.70
2022-10-17T07:45:29.477Z,84.50
2022-10-17T07:47:56.944Z,84.40
2022-10-17T07:50:23.312Z,84.41
2022-10-17T07:52:49.003Z,83.79
2022-10-17T07:55:14.727Z,83.73
2022-10-17T07:57:40.443Z,83.62
2022-10-17T08:00:07.846Z,83.26
2022-10-17T08:02:33.536Z,83.34
2022-10-17T08:04:59.192Z,83.26
2022-10-17T08:07:29.142Z,83.04
2022-10-17T08:09:55.269Z,82.47
2022-10-17T08:12:21.240Z,82.99
2022-10-17T08:14:47.396Z,82.52
2022-10-17T08:17:13.146Z,82.05
2022-10-17T08:19:39.617Z,82.51
2022-10-17T08:22:06.201Z,81.91
2022-10-17T08:24:31.947Z,82.43
2022-10-17T08:26:57.683Z,81.69
2022-10-17T08:29:23.400Z,81.28
2022-10-17T08:31:52.410Z,81.04
2022-10-17T08:34:22.014Z,80.48
2022-10-17T08:36:47.684Z,80.21
2022-10-17T08:39:13.373Z,79.77
2022-10-17T08:41:54.753Z,79.58
2022-10-17T08:44:44.710Z,78.97
2022-10-17T08:47:14.771Z,79.09
2022-10-17T08:49:51.747Z,79.09
2022-10-17T08:52:38.137Z,78.02
2022-10-17T08:55:12.664Z,77.95
2022-10-17T08:57:38.416Z,78.27
2022-10-17T09:00:21.336Z,77.39
2022-10-17T09:03:13.797Z,76.32
2022-10-17T09:05:46.116Z,76.20
2022-10-17T09:08:34.952Z,75.75
2022-10-17T09:11:18.188Z,74.86
2022-10-17T09:13:59.047Z,75.25
2022-10-17T09:16:48.651Z,74.54
2022-10-17T09:19:17.434Z,74.68
2022-10-17T09:21:56.482Z,74.45
2022-10-17T09:24:43.657Z,74.14
2022-10-17T09:27:21.368Z,73.99
2022-10-17T09:29:49.741Z,73.56
2022-10-17T09:32:23.304Z,73.53
2022-10-17T09:34:49.033Z,73.33
2022-10-17T09:37:16.595Z,71.87
2022-10-17T09:39:43.562Z,72.99
2022-10-17T09:42:13.983Z,70.68
2022-10-17T09:44:55.137Z,72.26
2022-10-17T09:47:37.294Z,70.99
2022-10-17T09:50:03.322Z,70.69
2022-10-17T09:52:47.883Z,70.16
2022-10-17T09:55:33.807Z,70.19
2022-10-17T09:58:02.571Z,69.57
2022-10-17T10:00:41.729Z,70.05
2022-10-17T10:03:08.026Z,68.74
2022-10-17T10:05:33.681Z,70.17
2022-10-17T10:08:12.250Z,70.37
2022-10-17T10:10:42.256Z,68.62
2022-10-17T10:13:13.928Z,68.49
2022-10-17T10:15:42.243Z,67.16
2022-10-17T10:18:35.276Z,65.45
2022-10-17T10:21:15.154Z,66.98
2022-10-17T10:23:43.710Z,66.97
2022-10-17T10:26:31.310Z,67.06
2022-10-17T10:29:01.027Z,65.92
2022-10-17T10:31:39.117Z,63.54
2022-10-17T10:34:17.950Z,64.44
2022-10-17T10:36:56.220Z,64.03
2022-10-17T10:39:33.964Z,63.53
2022-10-17T10:42:02.948Z,63.69
2022-10-17T10:44:31.909Z,63.22
2022-10-17T10:47:21.422Z,61.96
2022-10-17T10:49:49.366Z,62.34
2022-10-17T10:52:27.947Z,61.33
2022-10-17T10:55:02.817Z,62.13
2022-10-17T10:57:32.646Z,60.62
2022-10-17T11:00:15.897Z,61.17
2022-10-17T11:03:17.263Z,60.46
2022-10-17T11:05:54.870Z,61.34
2022-10-17T11:08:30.574Z,60.94
2022-10-17T11:11:06.100Z,59.89
2022-10-17T11:14:05.498Z,57.38
2022-10-17T11:16:54.751Z,56.84
2022-10-17T11:19:32.386Z,57.22
2022-10-17T11:22:40.480Z,57.42
2022-10-17T11:25:31.133Z,56.16
2022-10-17T11:27:59.820Z,57.34
2022-10-17T11:33:19.581Z,57.04
2022-10-17T11:35:50.740Z,58.69
2022-10-17T11:38:44.108Z,57.28
2022-10-17T11:41:17.910Z,57.12
2022-10-17T11:43:53.386Z,57.29
2022-10-17T11:46:26.542Z,58.00
2022-10-17T11:49:12.399Z,57.04
2022-10-17T11:52:01.953Z,56.89
2022-10-17T11:54:55.464Z,58.30
2022-10-17T11:57:48.054Z,56.31
2022-10-17T12:00:40.806Z,56.93
2022-10-17T12:03:22.888Z,57.29
2022-10-17T12:05:52.453Z,57.89
2022-10-17T12:08:31.324Z,56.50
2022-10-17T12:11:04.368Z,57.46
2022-10-17T12:13:32.776Z,56.51
2022-10-17T12:16:21.123Z,56.98
2022-10-17T12:19:09.863Z,56.81
2022-10-17T12:21:59.172Z,56.31
2022-10-17T12:24:36.567Z,57.39
2022-10-17T12:27:22.475Z,56.55
2022-10-17T12:29:49.964Z,57.60
2022-10-17T12:32:16.093Z,57.79
2022-10-17T12:34:53.224Z,56.35
2022-10-17T12:37:59.531Z,56.13
2022-10-17T12:40:34.486Z,57.01
2022-10-17T12:43:29.220Z,56.21
2022-10-17T12:46:02.676Z,57.09
2022-10-17T12:48:37.408Z,56.63
2022-10-17T12:51:37.642Z,56.42
2022-10-17T12:54:15.882Z,55.80
2022-10-17T12:56:44.880Z,56.22
2022-10-17T12:59:21.221Z,56.09
2022-10-17T13:01:52.363Z,55.73
2022-10-17T13:04:19.356Z,56.29
2022-10-17T13:06:48.446Z,56.84
2022-10-17T13:09:24.136Z,56.25
2022-10-17T13:11:51.057Z,57.21
2022-10-17T13:14:20.281Z,57.22
2022-10-17T13:16:57.752Z,57.32
2022-10-17T13:19:26.563Z,57.82
2022-10-17T13:22:05.337Z,57.78
2022-10-17T13:24:37.950Z,57.95
2022-10-17T13:27:05.432Z,58.43
2022-10-17T13:29:32.207Z,58.45
2022-10-17T13:32:00.684Z,58.16
2022-10-17T13:34:27.457Z,58.74
2022-10-17T13:36:56.213Z,58.86
2022-10-17T13:39:38.296Z,58.71
2022-10-17T13:42:20.854Z,58.57
2022-10-17T13:44:46.920Z,58.39
2022-10-17T13:47:29.897Z,57.43
2022-10-17T13:49:57.480Z,58.28
2022-10-17T13:52:26.717Z,58.79
2022-10-17T13:54:53.328Z,59.06
2022-10-17T13:57:27.765Z,58.51
2022-10-17T14:00:08.564Z,58.41
2022-10-17T14:02:37.436Z,57.74
2022-10-17T14:05:18.290Z,57.98
2022-10-17T14:08:12.047Z,57.78
2022-10-17T14:10:39.923Z,57.37
2022-10-17T14:13:07.465Z,57.87
2022-10-17T14:15:35.949Z,57.23
2022-10-17T14:18:07.809Z,54.86
2022-10-17T14:23:42.694Z,54.83
2022-10-17T14:26:22.366Z,54.87
2022-10-17T14:29:19.588Z,54.90
2022-10-17T14:31:48.104Z,56.16
2022-10-17T14:34:25.802Z,56.23
2022-10-17T14:36:52.696Z,56.62
2022-10-17T14:39:22.419Z,57.22
2022-10-17T14:41:49.273Z,56.63
2022-10-17T14:44:31.251Z,56.07
2022-10-17T14:47:06.004Z,55.90
2022-10-17T14:49:38.061Z,56.72
2022-10-17T14:52:18.387Z,55.43
2022-10-17T14:54:47.198Z,56.33
2022-10-17T14:57:30.900Z,56.57
2022-10-17T14:59:57.170Z,56.63
2022-10-17T15:02:25.063Z,57.13
2022-10-17T15:04:51.502Z,57.33
2022-10-17T15:07:17.758Z,57.35
2022-10-17T15:09:46.331Z,57.75
2022-10-17T15:12:17.743Z,57.69
2022-10-17T15:14:44.261Z,57.78
2022-10-17T15:17:23.962Z,57.93
2022-10-17T15:19:49.890Z,58.39
2022-10-17T15:22:17.603Z,58.62
2022-10-17T15:24:45.501Z,58.61
2022-10-17T15:27:17.401Z,58.90
2022-10-17T15:29:43.898Z,59.07
2022-10-17T15:32:10.072Z,59.12
2022-10-17T15:34:35.869Z,59.36
2022-10-17T15:37:04.034Z,59.63
2022-10-17T15:39:29.700Z,59.57
2022-10-17T15:41:55.677Z,60.04
2022-10-17T15:44:21.847Z,60.06
2022-10-17T15:46:48.034Z,60.16
2022-10-17T15:49:17.259Z,60.49
2022-10-17T15:51:43.416Z,60.79
2022-10-17T15:54:09.138Z,60.83
2022-10-17T15:56:40.447Z,61.21
2022-10-17T15:59:14.482Z,61.53
2022-10-17T16:01:41.265Z,61.64
2022-10-17T16:04:11.867Z,62.04
2022-10-17T16:06:38.037Z,62.89
2022-10-17T16:09:04.226Z,63.27
2022-10-17T16:11:42.523Z,64.51
2022-10-17T16:14:13.707Z,64.66
2022-10-17T16:16:39.489Z,64.34
2022-10-17T16:19:05.363Z,65.02
2022-10-17T16:21:35.211Z,65.93
2022-10-17T16:24:01.309Z,66.01
2022-10-17T16:26:27.803Z,66.40
2022-10-17T16:28:54.606Z,66.92
2022-10-17T16:31:29.834Z,67.89
2022-10-17T16:33:57.392Z,67.76
2022-10-17T16:36:23.434Z,69.11
2022-10-17T16:38:50.773Z,69.29
2022-10-17T16:41:22.307Z,69.72
2022-10-17T16:43:49.523Z,69.63
2022-10-17T16:46:15.974Z,69.91
2022-10-17T16:48:43.071Z,70.45
2022-10-17T16:51:09.125Z,73.00
2022-10-17T16:53:39.149Z,71.05
2022-10-17T16:56:06.221Z,71.61
2022-10-17T16:58:31.944Z,72.05
2022-10-17T17:01:02.965Z,72.00
2022-10-17T17:03:29.173Z,72.03
2022-10-17T17:05:54.971Z,72.26
2022-10-17T17:08:20.784Z,72.54
2022-10-17T17:10:50.202Z,72.92
2022-10-17T17:13:16.768Z,73.14
2022-10-17T17:15:42.688Z,73.24
2022-10-17T17:18:09.833Z,73.40
2022-10-17T17:20:36.137Z,74.00
2022-10-17T17:23:01.853Z,74.52
2022-10-17T17:25:27.769Z,74.22
2022-10-17T17:27:53.466Z,74.61
2022-10-17T17:30:19.127Z,74.90
2022-10-17T17:32:44.776Z,74.97
2022-10-17T17:37:36.266Z,75.56
2022-10-17T17:40:01.964Z,75.54
2022-10-17T17:42:27.657Z,75.96
2022-10-17T17:44:53.377Z,75.77
2022-10-17T17:47:19.134Z,76.16
2022-10-17T17:49:44.817Z,77.00
2022-10-17T17:52:10.508Z,77.20
2022-10-17T17:54:39.996Z,77.38
2022-10-17T17:57:07.001Z,76.98
2022-10-17T17:59:32.735Z,77.79
2022-10-17T18:01:58.461Z,77.25
2022-10-17T18:04:24.147Z,78.18
2022-10-17T18:06:49.876Z,77.83
2022-10-17T18:09:15.526Z,77.79
2022-10-17T18:11:41.452Z,77.83
2022-10-17T18:14:11.122Z,78.43
2022-10-17T18:16:37.345Z,79.08
2022-10-17T18:19:06.728Z,79.20
2022-10-17T18:21:33.052Z,79.53
2022-10-17T18:23:59.427Z,79.32
2022-10-17T18:26:25.118Z,79.67
2022-10-17T18:28:50.941Z,79.32
2022-10-17T18:31:23.508Z,79.93
2022-10-17T18:33:56.986Z,80.38
2022-10-17T18:36:25.257Z,80.09
2022-10-17T18:38:51.951Z,80.60
2022-10-17T18:41:19.961Z,81.19
2022-10-17T18:43:47.580Z,80.46
2022-10-17T18:46:16.469Z,81.41
2022-10-17T18:48:43.761Z,81.15
2022-10-17T18:51:09.664Z,82.63
2022-10-17T18:53:42.279Z,81.33
2022-10-17T18:56:09.416Z,81.40
2022-10-17T18:58:36.542Z,81.10
2022-10-17T19:01:09.351Z,81.85
2022-10-17T19:03:35.723Z,81.09
2022-10-17T19:06:03.343Z,81.52
2022-10-17T19:08:29.643Z,81.15
2022-10-17T19:10:55.608Z,81.52
2022-10-17T19:13:21.742Z,81.57
2022-10-17T19:15:47.564Z,81.98
2022-10-17T19:18:13.264Z,81.43
2022-10-17T19:20:38.983Z,81.78
2022-10-17T19:23:04.694Z,81.86
2022-10-17T19:25:30.393Z,81.50
2022-10-17T19:27:57.057Z,81.58
2022-10-17T19:30:23.503Z,81.72
2022-10-17T19:32:49.190Z,82.07
2022-10-17T19:35:15.037Z,81.76
2022-10-17T19:37:40.750Z,81.84
2022-10-17T19:40:07.135Z,82.31
2022-10-17T19:42:34.323Z,82.08
2022-10-17T19:45:01.441Z,82.08
2022-10-17T19:47:27.767Z,82.46
2022-10-17T19:49:53.532Z,82.24
2022-10-17T19:52:19.307Z,82.25
2022-10-17T19:54:44.976Z,82.36
2022-10-17T19:57:10.793Z,82.69
2022-10-17T19:59:36.506Z,82.78
2022-10-17T20:02:02.330Z,82.58
2022-10-17T20:04:28.098Z,83.29
2022-10-17T20:06:58.950Z,82.80
2022-10-17T20:09:25.683Z,82.88
2022-10-17T20:11:51.381Z,83.52
2022-10-17T20:14:17.069Z,83.72
2022-10-17T20:16:44.047Z,83.90
2022-10-17T20:19:11.695Z,84.42
2022-10-17T20:21:38.759Z,84.52
2022-10-17T20:24:07.098Z,84.55
2022-10-17T20:26:38.032Z,84.61
2022-10-17T20:29:13.568Z,84.43
2022-10-17T20:31:41.032Z,84.96
2022-10-17T20:34:07.177Z,84.32
2022-10-17T20:36:35.957Z,84.55
2022-10-17T20:39:01.975Z,84.42
2022-10-17T20:41:27.650Z,84.27
2022-10-17T20:43:54.373Z,84.12
2022-10-17T20:46:35.502Z,84.34
2022-10-17T20:49:03.499Z,84.50
2022-10-17T20:51:29.186Z,84.03
2022-10-17T20:53:54.826Z,84.53
2022-10-17T20:56:26.171Z,84.43
2022-10-17T20:58:54.207Z,83.87
2022-10-17T21:01:20.221Z,84.07
2022-10-17T21:03:46.678Z,83.74
2022-10-17T21:06:13.212Z,84.11
2022-10-17T21:08:39.287Z,84.07
2022-10-17T21:11:21.122Z,83.97
2022-10-17T21:13:52.408Z,83.85
2022-10-17T21:16:18.373Z,84.03
2022-10-17T21:18:44.952Z,83.87
2022-10-17T21:21:18.985Z,84.24
2022-10-17T21:23:46.494Z,84.16
2022-10-17T21:26:12.803Z,84.10
2022-10-17T21:28:39.356Z,84.52
2022-10-17T21:31:14.716Z,84.23
2022-10-17T21:33:41.604Z,84.21
2022-10-17T21:36:08.636Z,84.52
2022-10-17T21:38:36.552Z,84.51
2022-10-17T21:41:04.196Z,84.38
2022-10-17T21:43:30.056Z,84.23
2022-10-17T21:45:55.734Z,84.35
2022-10-17T21:48:21.442Z,84.03
2022-10-17T21:50:47.394Z,84.44
2022-10-17T21:53:13.074Z,84.17
2022-10-17T21:55:38.771Z,84.48
2022-10-17T21:58:04.584Z,84.72
2022-10-17T22:00:30.318Z,84.21
2022-10-17T22:02:56.102Z,84.51
2022-10-17T22:05:21.999Z,84.45
2022-10-17T22:07:47.686Z,84.67
2022-10-17T22:10:13.526Z,84.36
2022-10-17T22:12:39.224Z,84.31
2022-10-17T22:15:05.462Z,84.42
2022-10-17T22:17:31.488Z,84.56
2022-10-17T22:19:57.371Z,84.42
2022-10-17T22:22:23.078Z,84.38
2022-10-17T22:24:48.796Z,84.78
2022-10-17T22:27:14.760Z,84.59
2022-10-17T22:29:40.555Z,84.53
2022-10-17T22:32:06.257Z,84.71
2022-10-17T22:34:32.156Z,84.90
2022-10-17T22:36:57.832Z,85.09
2022-10-17T22:39:23.530Z,84.83
2022-10-17T22:41:49.179Z,84.87
2022-10-17T22:44:14.831Z,84.89
2022-10-17T22:46:40.542Z,84.83
2022-10-17T22:49:06.213Z,85.08
2022-10-17T22:51:32.014Z,85.09
2022-10-17T22:53:57.705Z,85.25
2022-10-17T22:56:23.379Z,85.09
2022-10-17T22:58:49.099Z,84.94
2022-10-17T23:01:19.261Z,84.94
2022-10-17T23:03:45.580Z,85.08
2022-10-17T23:06:12.079Z,85.10
2022-10-17T23:08:38.596Z,84.97
2022-10-17T23:11:05.128Z,84.67
2022-10-17T23:13:30.788Z,84.47
2022-10-17T23:15:56.665Z,84.64
2022-10-17T23:18:24.355Z,84.63
2022-10-17T23:20:50.550Z,84.77
2022-10-17T23:23:17.296Z,85.43
2022-10-17T23:25:43.132Z,84.79
2022-10-17T23:28:09.718Z,85.21
2022-10-17T23:30:36.176Z,85.16
2022-10-17T23:33:02.314Z,85.14
2022-10-17T23:35:28.515Z,84.79
2022-10-17T23:37:54.214Z,84.97
2022-10-17T23:40:19.912Z,85.03
2022-10-17T23:42:45.986Z,84.88
2022-10-17T23:45:12.378Z,85.16
2022-10-17T23:47:38.976Z,85.26
2022-10-17T23:50:05.764Z,85.20
2022-10-17T23:52:31.565Z,85.08
2022-10-17T23:54:57.370Z,85.44
2022-10-17T23:57:23.049Z,85.27
2022-10-17T23:59:48.903Z,85.10
